Share

Montrose, AR

Hwy 172 (KARMONTI2) Elev 256 ft | 33.55 °N, 91.82 °W | Change Station

Current weather conditions updated 3 minutes ago

Partly Cloudy
Partly Cloudy
54.5 °F
Feels Like 54.5 °F
N
0.0
Wind Variable Wind from WSW
Gusts 0.0 mph
Sunrise 6:33 AM
Sunset 7:38 PM
Moon Waning Gibbous

Tomorrow is forecast to be Warmer than today.

Pressure 30.19 in
Visibility 10.0 miles
Clouds Few 12000 ft
Dew Point 40 °F
Humidity 58%
Rainfall 0.00 in
Snow Depth Not available.
UV 0 out of 16
Pollen 8.40 out of 12
Air Quality Not available.
Flu Activity Sporadic
METAR KLLQ 180353Z AUTO 00000KT 10SM FEW120 14/11 A3019 RMK AO2 TSE08RAE19 SLP221 P0000 T01390106

More Conditions Fewer Conditions

Pressure 30.19 in
Visibility 10.0 miles
Clouds Few 12000 ft
Dew Point 40 °F
Humidity 58%
Rainfall 0.00 in
Snow Depth Not available.
UV 0 out of 16
Pollen 8.40 out of 12
Air Quality Not available.
Flu Activity Sporadic
METAR KLLQ 180353Z AUTO 00000KT 10SM FEW120 14/11 A3019 RMK AO2 TSE08RAE19 SLP221 P0000 T01390106

More Conditions Fewer Conditions

10-Day Forecast

Almanac

Astronomy

Apr. 17, 2014 Rise Set
Actual Time 6:33 AM CDT 7:38 PM CDT
Civil Twilight 6:07 AM CDT 8:03 PM CDT
Nautical Twilight 5:37 AM CDT 8:34 PM CDT
Astronomical Twilight 5:06 AM CDT 9:05 PM CDT
Moon 10:18 PM CDT (4/17) 8:10 AM CDT (4/17)
Length of Visible Light 13h 56m
Length of Day
13h 04m
Tomorrow will be 1m 56s longer.
Waning Gibbous, 90% of the Moon is Illuminated
Apr 18
Waning Gibbous
Apr 22
Last Quarter
Apr 29
New
May 6
First Quarter
May 14
Full

Yesterday's Extremes

State Highs State Lows

Community

  • SUNRISE THROUGH THE TREES.
    SUNRISE THROUGH THE TREES.
  • Dog Wood Blossoms
    Dog Wood Blossoms
  • Morning Light
    Morning Light
  • New Day
    New Day
  • Lake Michigan Sunrise
    Lake Michigan Sunrise

WunderPhotos

Upload Photos

1,702,258 photos uploaded!

WunderBlogs® & News

Nearby

Snow Depth

Station Depth Elevation
No new snow has been reported.

Coastal Water Temperatures

Place Temperature
No Stations Reporting

Earthquake Activity

City Distance Mag. Time & Date
No recent earthquake activity has been reported nearby.
Minimum magnitude displayed is 2.5.

Nearby Weather Stations

Station Location Temp. Dew Point Humidity Wind Precip. Elev Updated Type
MesoWest SUNSHN , Portland, AR 59 °F - - North  at  - 0.00 in / hr 125 ft 8:30 PM CDT MADIS
MesoWest ARLA , Wilmot, AR 63 °F - - North  at  - 0.00 in / hr 108 ft 8:45 PM CDT MADIS
Hwy 172, Monticello, AR 54.5 °F 40 °F 58% WSW  at  0.0 mph 0.00 in / hr 256 ft 11:48 PM CDT Normal

Show More Stations Show Fewer Stations

What do you think?

We're not finished. Please let us know what you like, what you don't like, and what you are still missing.